createdAt,value
2017-12-25T00:01:31.192Z,35.90
2017-12-25T00:03:59.653Z,33.93
2017-12-25T00:06:27.357Z,34.33
2017-12-25T00:08:54.986Z,29.13
2017-12-25T00:11:22.620Z,32.73
2017-12-25T00:13:51.125Z,23.97
2017-12-25T00:16:18.758Z,36.03
2017-12-25T00:18:46.384Z,35.37
2017-12-25T00:21:14.104Z,38.17
2017-12-25T00:23:41.796Z,38.07
2017-12-25T00:26:09.446Z,42.37
2017-12-25T00:28:37.139Z,33.63
2017-12-25T00:31:04.772Z,30.37
2017-12-25T00:33:33.229Z,35.63
2017-12-25T00:36:00.932Z,28.23
2017-12-25T00:38:28.578Z,24.77
2017-12-25T00:40:56.212Z,24.27
2017-12-25T00:43:23.900Z,26.53
2017-12-25T00:45:51.533Z,31.03
2017-12-25T00:48:21.157Z,31.50
2017-12-25T00:50:47.838Z,33.80
2017-12-25T00:53:15.469Z,35.47
2017-12-25T00:55:43.108Z,34.23
2017-12-25T00:58:10.792Z,37.63
2017-12-25T01:00:38.425Z,32.43
2017-12-25T01:03:06.055Z,36.77
2017-12-25T01:05:33.765Z,37.87
2017-12-25T01:08:01.400Z,36.73
2017-12-25T01:10:29.022Z,40.00
2017-12-25T01:15:35.813Z,35.17
2017-12-25T01:18:03.513Z,35.53
2017-12-25T01:20:31.953Z,29.13
2017-12-25T01:22:59.585Z,30.77
2017-12-25T01:25:27.274Z,32.40
2017-12-25T01:27:54.900Z,29.63
2017-12-25T01:30:22.540Z,30.37
2017-12-25T01:32:50.251Z,28.67
2017-12-25T01:35:17.879Z,38.37
2017-12-25T01:37:45.512Z,36.00
2017-12-25T01:40:13.199Z,31.03
2017-12-25T01:42:41.176Z,30.47
2017-12-25T01:45:08.819Z,28.87
2017-12-25T01:47:36.515Z,24.73
2017-12-25T01:50:04.163Z,31.17
2017-12-25T01:52:32.950Z,30.63
2017-12-25T01:55:00.649Z,30.53
2017-12-25T02:03:01.434Z,41.35
2017-12-25T02:08:23.151Z,42.40
2017-12-25T02:10:50.863Z,35.57
2017-12-25T02:13:18.486Z,33.93
2017-12-25T02:15:46.124Z,26.60
2017-12-25T02:18:13.810Z,25.80
2017-12-25T02:20:43.230Z,33.10
2017-12-25T02:23:09.067Z,29.60
2017-12-25T02:25:36.783Z,23.40
2017-12-25T02:28:04.405Z,29.73
2017-12-25T02:30:32.047Z,26.70
2017-12-25T02:32:59.744Z,27.63
2017-12-25T02:35:27.363Z,26.30
2017-12-25T02:37:54.992Z,23.23
2017-12-25T02:40:25.804Z,24.17
2017-12-25T02:42:53.431Z,24.90
2017-12-25T02:45:23.801Z,22.17
2017-12-25T02:47:51.481Z,22.23
2017-12-25T02:50:19.112Z,23.93
2017-12-25T02:52:46.762Z,24.37
2017-12-25T02:55:14.469Z,36.57
2017-12-25T02:57:42.103Z,25.73
2017-12-25T03:00:09.744Z,26.03
2017-12-25T03:02:37.459Z,20.73
2017-12-25T03:05:05.117Z,26.40
2017-12-25T03:07:33.571Z,27.07
2017-12-25T03:10:01.607Z,24.33
2017-12-25T03:12:29.230Z,25.10
2017-12-25T03:14:57.665Z,20.77
2017-12-25T03:17:25.373Z,18.67
2017-12-25T03:19:53.224Z,20.37
2017-12-25T03:22:20.625Z,19.57
2017-12-25T03:24:48.321Z,19.30
2017-12-25T03:27:15.947Z,19.73
2017-12-25T03:32:23.125Z,23.35
2017-12-25T03:34:50.750Z,21.43
2017-12-25T03:37:18.671Z,19.60
2017-12-25T03:39:46.088Z,19.13
2017-12-25T03:42:14.663Z,20.27
2017-12-25T03:44:42.294Z,22.23
2017-12-25T03:47:09.997Z,25.03
2017-12-25T03:49:37.622Z,21.73
2017-12-25T03:52:05.535Z,15.13
2017-12-25T03:54:33.227Z,13.90
2017-12-25T03:57:01.339Z,11.60
2017-12-25T03:59:28.987Z,13.00
2017-12-25T04:01:56.664Z,12.43
2017-12-25T04:04:24.288Z,13.73
2017-12-25T04:06:51.920Z,15.03
2017-12-25T04:09:20.083Z,19.80
2017-12-25T04:11:47.713Z,23.33
2017-12-25T04:14:16.117Z,22.77
2017-12-25T04:16:43.799Z,24.50
2017-12-25T04:19:11.428Z,22.47
2017-12-25T04:21:39.068Z,22.10
2017-12-25T04:24:06.771Z,19.97
2017-12-25T04:26:34.402Z,21.67
2017-12-25T04:31:45.963Z,20.15
2017-12-25T04:34:13.593Z,17.37
2017-12-25T04:36:41.230Z,23.03
2017-12-25T04:39:08.959Z,22.90
2017-12-25T04:41:36.594Z,24.43
2017-12-25T04:44:04.230Z,19.03
2017-12-25T04:46:35.078Z,22.60
2017-12-25T04:49:03.032Z,20.00
2017-12-25T04:51:30.666Z,19.57
2017-12-25T04:53:58.354Z,21.37
2017-12-25T04:56:25.988Z,16.97
2017-12-25T04:58:53.975Z,18.67
2017-12-25T05:01:21.686Z,15.40
2017-12-25T05:03:51.230Z,7.73
2017-12-25T05:06:16.946Z,10.97
2017-12-25T05:08:45.481Z,13.00
2017-12-25T05:11:13.107Z,14.03
2017-12-25T05:13:40.746Z,13.53
2017-12-25T05:16:08.443Z,11.20
2017-12-25T05:18:36.086Z,13.73
2017-12-25T05:21:04.679Z,9.30
2017-12-25T05:23:32.331Z,11.77
2017-12-25T05:25:59.966Z,9.00
2017-12-25T05:28:27.594Z,12.47
2017-12-25T05:30:55.291Z,7.90
2017-12-25T05:33:22.934Z,12.57
2017-12-25T05:35:50.560Z,10.90
2017-12-25T05:38:18.243Z,11.40
2017-12-25T05:40:46.595Z,11.10
2017-12-25T05:43:14.239Z,18.93
2017-12-25T05:45:41.948Z,17.33
2017-12-25T05:48:09.576Z,15.23
2017-12-25T05:50:37.202Z,14.27
2017-12-25T05:53:05.883Z,13.43
2017-12-25T05:55:33.512Z,22.23
2017-12-25T06:00:40.302Z,25.90
2017-12-25T06:03:09.734Z,22.90
2017-12-25T06:05:35.574Z,22.60
2017-12-25T06:08:06.327Z,19.53
2017-12-25T06:10:33.967Z,20.23
2017-12-25T06:13:02.328Z,25.00
2017-12-25T06:15:30.016Z,20.73
2017-12-25T06:17:58.460Z,24.83
2017-12-25T06:20:26.093Z,19.20
2017-12-25T06:22:55.507Z,22.27
2017-12-25T06:25:23.855Z,22.27
2017-12-25T06:27:51.500Z,19.63
2017-12-25T06:30:19.224Z,19.03
2017-12-25T06:32:46.850Z,19.07
2017-12-25T06:35:14.479Z,13.17
2017-12-25T06:37:42.346Z,11.57
2017-12-25T06:40:09.976Z,16.43
2017-12-25T06:42:37.598Z,15.43
2017-12-25T06:45:05.743Z,17.83
2017-12-25T06:47:33.374Z,21.23
2017-12-25T06:50:01.004Z,17.03
2017-12-25T06:52:28.710Z,23.60
2017-12-25T06:54:58.645Z,21.57
2017-12-25T06:57:27.242Z,16.70
2017-12-25T06:59:54.921Z,11.17
2017-12-25T07:02:22.547Z,9.57
2017-12-25T07:04:52.021Z,12.50
2017-12-25T07:07:19.732Z,14.33
2017-12-25T07:09:47.363Z,14.50
2017-12-25T07:12:14.986Z,16.53
2017-12-25T07:14:45.881Z,13.57
2017-12-25T07:17:13.899Z,14.77
2017-12-25T07:19:41.560Z,18.90
2017-12-25T07:24:48.344Z,23.55
2017-12-25T07:27:16.030Z,20.10
2017-12-25T07:29:43.916Z,21.27
2017-12-25T07:32:11.555Z,21.77
2017-12-25T07:34:42.827Z,15.93
2017-12-25T07:37:10.469Z,10.57
2017-12-25T07:39:38.539Z,10.63
2017-12-25T07:42:06.222Z,8.60
2017-12-25T07:44:33.847Z,11.80
2017-12-25T07:47:03.297Z,17.77
2017-12-25T07:49:31.928Z,23.20
2017-12-25T07:51:59.566Z,22.03
2017-12-25T07:54:27.196Z,23.93
2017-12-25T07:56:54.889Z,23.13
2017-12-25T07:59:22.511Z,21.77
2017-12-25T08:01:50.149Z,24.07
2017-12-25T08:04:17.855Z,28.50
2017-12-25T08:06:46.295Z,24.70
2017-12-25T08:09:13.925Z,21.43
2017-12-25T08:11:41.664Z,26.80
2017-12-25T08:14:09.293Z,28.63
2017-12-25T08:16:36.923Z,22.17
2017-12-25T08:19:05.495Z,23.60
2017-12-25T08:21:33.133Z,25.50
2017-12-25T08:24:00.772Z,25.73
2017-12-25T08:26:31.882Z,22.33
2017-12-25T08:28:59.519Z,25.80
2017-12-25T08:31:28.013Z,21.67
2017-12-25T08:33:55.699Z,22.80
2017-12-25T08:36:23.328Z,22.60
2017-12-25T08:38:50.961Z,23.63
2017-12-25T08:41:18.669Z,27.63
2017-12-25T08:46:25.463Z,26.60
2017-12-25T08:48:53.093Z,20.53
2017-12-25T08:51:20.742Z,23.07
2017-12-25T08:53:48.440Z,23.97
2017-12-25T08:56:16.067Z,23.27
2017-12-25T08:58:44.444Z,19.70
2017-12-25T09:01:12.129Z,23.00
2017-12-25T09:03:39.757Z,18.97
2017-12-25T09:06:07.392Z,18.87
2017-12-25T09:08:35.083Z,18.93
2017-12-25T09:11:02.718Z,14.93
2017-12-25T09:13:30.357Z,17.63
2017-12-25T09:15:58.053Z,14.03
2017-12-25T09:18:25.678Z,19.03
2017-12-25T09:20:53.305Z,15.63
2017-12-25T09:23:21.019Z,13.27
2017-12-25T09:25:48.646Z,16.27
2017-12-25T09:28:16.268Z,14.33
2017-12-25T09:30:43.961Z,13.23
2017-12-25T09:33:11.597Z,15.83
2017-12-25T09:35:39.233Z,13.73
2017-12-25T09:38:06.904Z,16.33
2017-12-25T09:40:34.540Z,14.73
2017-12-25T09:43:02.157Z,15.53
2017-12-25T09:45:29.862Z,15.63
2017-12-25T09:47:57.503Z,15.30
2017-12-25T09:50:25.123Z,16.87
2017-12-25T09:52:52.829Z,12.97
2017-12-25T09:58:02.792Z,15.90
2017-12-25T10:00:30.403Z,12.53
2017-12-25T10:02:58.025Z,13.53
2017-12-25T10:05:25.700Z,11.83
2017-12-25T10:07:53.328Z,13.73
2017-12-25T10:10:20.938Z,11.67
2017-12-25T10:12:49.607Z,11.70
2017-12-25T10:15:17.230Z,11.90
2017-12-25T10:20:25.643Z,11.73
2017-12-25T10:22:53.259Z,9.97
2017-12-25T10:25:21.045Z,11.07
2017-12-25T10:27:51.633Z,12.47
2017-12-25T10:30:19.253Z,9.37
2017-12-25T10:32:46.878Z,10.43
2017-12-25T10:35:14.566Z,9.83
2017-12-25T10:37:42.191Z,7.73
2017-12-25T10:40:09.811Z,6.93
2017-12-25T10:42:37.487Z,7.67
2017-12-25T10:45:05.108Z,11.40
2017-12-25T10:47:32.737Z,9.27
2017-12-25T10:50:00.413Z,5.53
2017-12-25T10:52:28.037Z,9.60
2017-12-25T10:54:55.656Z,7.67
2017-12-25T10:57:24.285Z,7.37
2017-12-25T10:59:53.914Z,6.87
2017-12-25T11:02:21.530Z,6.83
2017-12-25T11:04:49.229Z,5.73
2017-12-25T11:07:16.844Z,6.37
2017-12-25T11:09:44.469Z,6.40
2017-12-25T11:12:12.147Z,8.30
2017-12-25T11:14:39.787Z,7.83
2017-12-25T11:17:07.393Z,6.40
2017-12-25T11:19:35.095Z,8.10
2017-12-25T11:22:02.712Z,7.93
2017-12-25T11:24:30.336Z,9.00
2017-12-25T11:26:58.002Z,7.87
2017-12-25T11:29:25.618Z,8.80
2017-12-25T11:31:53.237Z,6.57
2017-12-25T11:34:20.961Z,6.83
2017-12-25T11:36:48.579Z,8.83
2017-12-25T11:39:16.196Z,7.93
2017-12-25T11:44:22.966Z,8.43
2017-12-25T11:46:51.601Z,6.50
2017-12-25T11:49:19.224Z,6.57
2017-12-25T11:51:47.379Z,6.90
2017-12-25T11:54:15.057Z,7.63
2017-12-25T11:56:42.682Z,7.10
2017-12-25T11:59:10.329Z,6.03
2017-12-25T12:01:37.986Z,8.33
2017-12-25T12:04:05.606Z,6.93
2017-12-25T12:06:33.225Z,6.73
2017-12-25T12:09:00.919Z,8.07
2017-12-25T12:11:28.547Z,5.53
2017-12-25T12:13:56.165Z,6.87
2017-12-25T12:16:23.842Z,5.70
2017-12-25T12:18:51.463Z,7.57
2017-12-25T12:21:19.079Z,9.07
2017-12-25T12:23:47.716Z,6.03
2017-12-25T12:26:15.386Z,6.17
2017-12-25T12:28:42.977Z,5.07
2017-12-25T12:31:10.648Z,5.70
2017-12-25T12:33:38.270Z,6.03
2017-12-25T12:36:05.884Z,5.97
2017-12-25T12:38:33.578Z,5.83
2017-12-25T12:41:01.200Z,6.80
2017-12-25T12:43:28.827Z,6.23
2017-12-25T12:45:56.503Z,7.37
2017-12-25T12:48:24.121Z,6.70
2017-12-25T12:50:51.745Z,6.27
2017-12-25T12:53:19.427Z,6.77
2017-12-25T12:55:47.055Z,5.63
2017-12-25T12:58:14.675Z,5.30
2017-12-25T13:00:42.353Z,7.90
2017-12-25T13:03:09.962Z,6.33
2017-12-25T13:08:16.724Z,7.95
2017-12-25T13:10:44.351Z,7.67
2017-12-25T13:13:12.672Z,7.43
2017-12-25T13:15:40.368Z,7.47
2017-12-25T13:18:07.986Z,5.73
2017-12-25T13:20:35.602Z,5.77
2017-12-25T13:23:03.277Z,7.57
2017-12-25T13:25:30.894Z,6.00
2017-12-25T13:27:58.521Z,6.17
2017-12-25T13:30:27.007Z,5.40
2017-12-25T13:32:54.635Z,6.87
2017-12-25T13:35:22.255Z,6.27
2017-12-25T13:37:49.963Z,6.87
2017-12-25T13:40:17.581Z,6.40
2017-12-25T13:42:45.198Z,5.40
2017-12-25T13:45:12.871Z,5.07
2017-12-25T13:47:41.452Z,8.53
2017-12-25T13:50:09.080Z,6.17
2017-12-25T13:52:36.776Z,8.00
2017-12-25T13:55:04.402Z,7.27
2017-12-25T13:57:32.021Z,5.87
2017-12-25T13:59:59.694Z,6.83
2017-12-25T14:02:27.311Z,6.40
2017-12-25T14:04:54.935Z,7.37
2017-12-25T14:07:22.611Z,7.63
2017-12-25T14:09:50.223Z,7.83
2017-12-25T14:12:17.855Z,6.63
2017-12-25T14:14:45.526Z,6.87
2017-12-25T14:17:13.137Z,7.80
2017-12-25T14:19:40.774Z,8.53
2017-12-25T14:22:08.458Z,7.37
2017-12-25T14:24:36.072Z,6.73
2017-12-25T14:27:03.705Z,6.70
2017-12-25T14:29:31.386Z,7.50
2017-12-25T14:34:41.899Z,10.75
2017-12-25T14:37:09.514Z,7.77
2017-12-25T14:39:37.145Z,12.63
2017-12-25T14:42:04.809Z,7.43
2017-12-25T14:44:32.434Z,6.40
2017-12-25T14:47:00.057Z,8.87
2017-12-25T14:49:28.685Z,6.80
2017-12-25T14:57:17.880Z,8.35
2017-12-25T14:59:46.508Z,7.53
2017-12-25T15:02:14.139Z,6.97
2017-12-25T15:04:41.757Z,11.77
2017-12-25T15:07:09.437Z,9.30
2017-12-25T15:09:37.792Z,13.27
2017-12-25T15:12:06.304Z,9.37
2017-12-25T15:14:33.980Z,10.27
2017-12-25T15:17:01.607Z,11.87
2017-12-25T15:19:29.232Z,12.83
2017-12-25T15:21:56.936Z,13.00
2017-12-25T15:24:24.566Z,14.70
2017-12-25T15:26:52.189Z,11.77
2017-12-25T15:29:19.869Z,9.50
2017-12-25T15:31:47.497Z,9.93
2017-12-25T15:34:15.140Z,11.40
2017-12-25T15:36:42.815Z,7.90
2017-12-25T15:39:10.430Z,9.43
2017-12-25T15:41:38.063Z,9.70
2017-12-25T15:44:05.751Z,9.87
2017-12-25T15:46:33.374Z,11.67
2017-12-25T15:49:01.015Z,10.17
2017-12-25T15:51:28.712Z,12.37
2017-12-25T15:53:59.453Z,12.03
2017-12-25T15:56:27.508Z,9.50
2017-12-25T15:58:55.183Z,8.07
2017-12-25T16:01:22.801Z,16.27
2017-12-25T16:03:50.427Z,12.27
2017-12-25T16:06:18.136Z,15.07
2017-12-25T16:08:45.754Z,16.60
2017-12-25T16:11:13.376Z,14.87
2017-12-25T16:13:41.992Z,15.47
2017-12-25T16:16:09.619Z,14.17
2017-12-25T16:18:37.241Z,13.23
2017-12-25T16:23:46.029Z,14.63
2017-12-25T16:26:13.881Z,14.90
2017-12-25T16:28:41.506Z,15.03
2017-12-25T16:31:09.128Z,14.63
2017-12-25T16:33:36.825Z,19.67
2017-12-25T16:36:05.153Z,16.47
2017-12-25T16:38:32.787Z,24.33
2017-12-25T16:41:00.493Z,19.23
2017-12-25T16:43:29.060Z,20.13
2017-12-25T16:45:57.627Z,18.77
2017-12-25T16:48:25.340Z,17.10
2017-12-25T16:50:53.793Z,21.17
2017-12-25T16:53:24.328Z,16.40
2017-12-25T16:55:50.079Z,23.40
2017-12-25T16:58:17.703Z,23.83
2017-12-25T17:00:45.335Z,20.03
2017-12-25T17:03:13.043Z,22.30
2017-12-25T17:05:41.445Z,16.70
2017-12-25T17:08:09.032Z,16.07
2017-12-25T17:10:37.662Z,20.47
2017-12-25T17:13:05.291Z,25.70
2017-12-25T17:15:32.918Z,24.63
2017-12-25T17:18:00.622Z,20.07
2017-12-25T17:20:28.241Z,22.93
2017-12-25T17:22:56.591Z,23.33
2017-12-25T17:25:24.280Z,19.93
2017-12-25T17:27:52.778Z,26.07
2017-12-25T17:30:20.458Z,25.93
2017-12-25T17:32:48.114Z,19.97
2017-12-25T17:37:54.915Z,23.45
2017-12-25T17:40:22.549Z,22.43
2017-12-25T17:42:50.180Z,18.50
2017-12-25T17:45:17.903Z,14.97
2017-12-25T17:47:45.537Z,17.33
2017-12-25T17:50:13.160Z,20.03
2017-12-25T17:52:40.863Z,24.80
2017-12-25T17:55:08.492Z,22.93
2017-12-25T17:57:36.173Z,23.20
2017-12-25T18:00:03.823Z,21.40
2017-12-25T18:02:31.448Z,24.10
2017-12-25T18:07:41.591Z,22.42
2017-12-25T18:10:09.218Z,22.37
2017-12-25T18:12:36.851Z,21.00
2017-12-25T18:15:04.540Z,19.10
2017-12-25T18:17:32.174Z,18.83
2017-12-25T18:19:59.798Z,18.90
2017-12-25T18:22:27.481Z,19.87
2017-12-25T18:24:55.102Z,19.47
2017-12-25T18:27:22.729Z,18.53
2017-12-25T18:29:50.432Z,19.30
2017-12-25T18:32:18.059Z,17.20
2017-12-25T18:34:45.785Z,19.07
2017-12-25T18:37:13.395Z,20.30
2017-12-25T18:39:41.028Z,19.97
2017-12-25T18:42:08.648Z,17.13
2017-12-25T18:44:36.338Z,17.23
2017-12-25T18:47:03.958Z,14.63
2017-12-25T18:49:31.587Z,18.83
2017-12-25T18:51:59.279Z,16.73
2017-12-25T18:54:26.908Z,16.63
2017-12-25T18:56:54.528Z,16.27
2017-12-25T18:59:22.217Z,13.03
2017-12-25T19:01:50.681Z,24.43
2017-12-25T19:04:19.207Z,21.40
2017-12-25T19:06:46.879Z,25.67
2017-12-25T19:09:14.513Z,25.73
2017-12-25T19:11:42.149Z,24.80
2017-12-25T19:14:09.826Z,23.90
2017-12-25T19:16:37.461Z,25.47
2017-12-25T19:19:05.088Z,20.07
2017-12-25T19:21:33.883Z,17.17
2017-12-25T19:24:01.512Z,22.00
2017-12-25T19:26:29.146Z,17.57
2017-12-25T19:31:33.888Z,33.72
2017-12-25T19:34:01.583Z,30.53
2017-12-25T19:36:29.220Z,25.50
2017-12-25T19:38:56.847Z,26.27
2017-12-25T19:41:24.529Z,30.23
2017-12-25T19:43:52.160Z,28.63
2017-12-25T19:46:23.226Z,24.03
2017-12-25T19:48:50.902Z,35.63
2017-12-25T19:53:59.481Z,59.45
2017-12-25T19:56:27.103Z,35.23
2017-12-25T19:58:54.746Z,36.83
2017-12-25T20:01:22.429Z,28.27
2017-12-25T20:03:50.935Z,31.83
2017-12-25T20:06:18.569Z,32.87
2017-12-25T20:08:46.291Z,30.90
2017-12-25T20:11:13.943Z,29.63
2017-12-25T20:13:41.553Z,28.87
2017-12-25T20:16:09.260Z,33.13
2017-12-25T20:18:36.893Z,31.60
2017-12-25T20:21:05.359Z,33.93
2017-12-25T20:23:34.023Z,34.17
2017-12-25T20:26:02.480Z,33.00
2017-12-25T20:28:30.104Z,32.90
2017-12-25T20:30:58.615Z,27.87
2017-12-25T20:33:26.250Z,30.37
2017-12-25T20:35:53.890Z,29.47
2017-12-25T20:38:21.579Z,28.93
2017-12-25T20:40:49.207Z,75.53
2017-12-25T20:43:16.845Z,57.70
2017-12-25T20:45:44.556Z,37.80
2017-12-25T20:48:12.191Z,50.97
2017-12-25T20:50:39.824Z,54.07
2017-12-25T20:53:07.517Z,42.93
2017-12-25T20:55:35.138Z,43.90
2017-12-25T20:58:02.776Z,47.00
2017-12-25T21:00:30.469Z,29.00
2017-12-25T21:02:58.105Z,28.83
2017-12-25T21:05:25.752Z,20.90
2017-12-25T21:07:53.445Z,29.37
2017-12-25T21:10:24.135Z,31.00
2017-12-25T21:12:51.758Z,27.07
2017-12-25T21:15:19.480Z,28.80
2017-12-25T21:20:26.268Z,35.25
2017-12-25T21:22:53.907Z,30.40
2017-12-25T21:25:21.543Z,33.43
2017-12-25T21:27:49.231Z,39.07
2017-12-25T21:30:16.896Z,37.30
2017-12-25T21:32:44.491Z,36.73
2017-12-25T21:35:12.197Z,45.53
2017-12-25T21:37:39.836Z,44.40
2017-12-25T21:40:07.471Z,37.63
2017-12-25T21:42:35.150Z,33.10
2017-12-25T21:45:03.721Z,31.93
2017-12-25T21:47:31.354Z,34.60
2017-12-25T21:49:59.074Z,35.17
2017-12-25T21:52:28.587Z,30.10
2017-12-25T21:54:54.336Z,35.97
2017-12-25T21:57:22.030Z,29.67
2017-12-25T21:59:49.663Z,33.17
2017-12-25T22:02:17.294Z,31.60
2017-12-25T22:04:44.994Z,32.47
2017-12-25T22:07:12.626Z,27.73
2017-12-25T22:09:40.257Z,37.93
2017-12-25T22:12:09.902Z,36.37
2017-12-25T22:14:35.638Z,34.60
2017-12-25T22:17:03.273Z,36.80
2017-12-25T22:19:30.955Z,42.10
2017-12-25T22:21:58.596Z,34.73
2017-12-25T22:24:26.226Z,37.83
2017-12-25T22:26:53.942Z,39.53
2017-12-25T22:29:26.428Z,39.00
2017-12-25T22:31:54.119Z,37.20
2017-12-25T22:34:24.692Z,37.00
2017-12-25T22:36:52.340Z,31.97
2017-12-25T22:39:20.068Z,28.40
2017-12-25T22:47:09.827Z,37.30
2017-12-25T22:49:37.547Z,28.10
2017-12-25T22:52:05.162Z,26.27
2017-12-25T22:54:33.220Z,25.03
2017-12-25T22:57:00.978Z,16.40
2017-12-25T22:59:28.612Z,22.33
2017-12-25T23:01:56.252Z,21.73
2017-12-25T23:04:23.944Z,17.00
2017-12-25T23:06:51.584Z,24.57
2017-12-25T23:09:19.228Z,26.90
2017-12-25T23:11:46.930Z,29.20
2017-12-25T23:14:14.576Z,28.37
2017-12-25T23:16:44.993Z,35.50
2017-12-25T23:19:12.702Z,25.53
2017-12-25T23:21:40.327Z,30.13
2017-12-25T23:24:07.974Z,30.23
2017-12-25T23:26:35.700Z,26.27
2017-12-25T23:29:03.332Z,26.93
2017-12-25T23:31:30.966Z,31.97
2017-12-25T23:33:58.656Z,30.00
2017-12-25T23:36:28.280Z,35.50
2017-12-25T23:38:55.908Z,36.17
2017-12-25T23:41:23.614Z,36.27
2017-12-25T23:43:51.255Z,34.53
2017-12-25T23:49:05.850Z,35.28
2017-12-25T23:51:35.150Z,35.77
2017-12-25T23:54:02.789Z,33.73
2017-12-25T23:56:30.492Z,34.17
2017-12-25T23:58:58.119Z,35.50
